Time;durP1;ratioP1;P1;durP2;ratioP2;P2;SDS_P1;SDS_P2;PMS_P1;PMS_P2;Temp;Humidity;BMP_temperature;BMP_pressure;BME280_temperature;BME280_humidity;BME280_pressure;Samples;Min_cycle;Max_cycle;Signal;HPM_P1;HPM_P2
2022/01/06 00:01:34;;;;;;;15.05;2.10;;;3.80;99.90;;;;;;5091482;28;20020;-45
2022/01/06 00:03:59;;;;;;;12.20;2.47;;;3.70;99.90;;;;;;5091515;28;20024;-46
2022/01/06 00:06:25;;;;;;;8.57;2.33;;;3.70;99.90;;;;;;5091553;28;20028;-46
2022/01/06 00:08:54;;;;;;;15.50;3.83;;;3.70;99.90;;;;;;5090249;28;20070;-46
2022/01/06 00:11:19;;;;;;;6.93;2.75;;;3.70;99.90;;;;;;5082335;28;20023;-47
2022/01/06 00:24:13;;;;;;;12.13;2.88;;;3.60;99.90;;;;;;5091245;28;20061;-45
2022/01/06 00:26:39;;;;;;;12.95;2.42;;;3.60;99.90;;;;;;5090819;28;20032;-46
2022/01/06 00:29:04;;;;;;;10.77;2.80;;;3.60;99.90;;;;;;5090347;28;20285;-45
2022/01/06 00:31:31;;;;;;;9.32;2.63;;;3.60;99.90;;;;;;5090966;28;20035;-47
2022/01/06 00:33:57;;;;;;;9.23;2.20;;;3.60;99.90;;;;;;5090947;28;20016;-48
2022/01/06 00:36:22;;;;;;;16.02;3.10;;;3.60;99.90;;;;;;5090871;28;20053;-46
2022/01/06 00:38:48;;;;;;;5.28;2.50;;;3.60;99.90;;;;;;5090144;28;20123;-46
2022/01/06 00:41:13;;;;;;;11.38;2.55;;;3.60;99.90;;;;;;5090480;28;20028;-47
2022/01/06 00:43:39;;;;;;;11.38;2.60;;;3.60;99.90;;;;;;5090665;28;20024;-49
2022/01/06 00:46:04;;;;;;;15.25;2.92;;;3.60;99.90;;;;;;5090872;28;20036;-47
2022/01/06 00:48:30;;;;;;;12.57;2.67;;;3.60;99.90;;;;;;5077702;28;20032;-46
2022/01/06 00:50:56;;;;;;;10.65;2.72;;;3.50;99.90;;;;;;5087067;28;20432;-47
2022/01/06 00:53:22;;;;;;;10.65;2.85;;;3.50;99.90;;;;;;5090431;28;20021;-46
2022/01/06 00:55:48;;;;;;;7.57;3.00;;;3.50;99.90;;;;;;5090484;28;20024;-48
2022/01/06 00:58:14;;;;;;;7.72;2.55;;;3.50;99.90;;;;;;5089528;28;20073;-49
2022/01/06 01:00:40;;;;;;;7.22;2.10;;;3.50;99.90;;;;;;5090366;28;20072;-46
2022/01/06 01:03:18;;;;;;;6.65;2.28;;;3.40;99.90;;;;;;5090350;28;20058;-47
2022/01/06 01:05:47;;;;;;;7.43;2.38;;;3.40;99.90;;;;;;5085818;28;20028;-46
2022/01/06 01:08:13;;;;;;;8.23;2.75;;;3.30;99.90;;;;;;5079030;28;20024;-48
2022/01/06 01:10:39;;;;;;;6.57;2.47;;;3.30;99.90;;;;;;5090203;28;20032;-47
2022/01/06 01:13:07;;;;;;;9.02;2.67;;;3.20;99.90;;;;;;5090029;28;20031;-47
2022/01/06 01:15:34;;;;;;;5.70;1.95;;;3.20;99.90;;;;;;5090213;28;20020;-44
2022/01/06 01:18:06;;;;;;;7.93;2.25;;;3.20;99.90;;;;;;5089429;28;20124;-46
2022/01/06 01:20:33;;;;;;;9.05;2.22;;;3.10;99.90;;;;;;5081794;28;20465;-45
2022/01/06 01:22:59;;;;;;;6.68;1.75;;;3.10;99.90;;;;;;5079857;28;20024;-46
2022/01/06 01:25:24;;;;;;;9.25;1.92;;;3.10;99.90;;;;;;5089564;28;20413;-47
2022/01/06 01:27:54;;;;;;;7.55;1.92;;;3.10;99.90;;;;;;5089191;28;20019;-48
2022/01/06 01:30:22;;;;;;;1.50;1.10;;;3.10;99.90;;;;;;5088458;28;20024;-45
2022/01/06 01:32:51;;;;;;;3.78;1.40;;;3.10;99.90;;;;;;5089587;28;20046;-44
2022/01/06 01:35:17;;;;;;;2.45;1.23;;;3.00;99.90;;;;;;5089520;28;20378;-43
2022/01/06 01:37:42;;;;;;;6.57;1.33;;;3.00;99.90;;;;;;5088920;28;20027;-43
2022/01/06 01:40:10;;;;;;;3.15;1.45;;;2.90;99.90;;;;;;5089423;28;20055;-46
2022/01/06 01:42:35;;;;;;;4.03;1.55;;;2.80;99.90;;;;;;5089549;28;20035;-48
2022/01/06 01:45:03;;;;;;;2.80;1.25;;;2.80;99.90;;;;;;5089523;28;20382;-46
2022/01/06 01:47:39;;;;;;;5.30;1.17;;;2.70;99.90;;;;;;5088725;28;20020;-46
2022/01/06 01:50:18;;;;;;;3.28;1.13;;;2.60;99.90;;;;;;5080224;28;20040;-46
2022/01/06 01:52:52;;;;;;;5.80;1.50;;;2.50;99.90;;;;;;5080720;28;20201;-47
2022/01/06 01:55:29;;;;;;;2.03;1.10;;;2.40;99.90;;;;;;5089141;28;20530;-47
2022/01/06 01:57:56;;;;;;;2.75;1.00;;;2.40;99.90;;;;;;5088587;28;20055;-46
2022/01/06 02:00:27;;;;;;;3.67;1.23;;;2.30;99.90;;;;;;5089266;28;20038;-47
2022/01/06 02:02:54;;;;;;;7.75;1.63;;;2.30;99.90;;;;;;5089338;28;20441;-45
2022/01/06 02:05:25;;;;;;;3.92;1.30;;;2.30;99.90;;;;;;5087851;28;20439;-46
2022/01/06 02:07:51;;;;;;;3.80;1.40;;;2.20;99.90;;;;;;5075432;28;20115;-45
2022/01/06 02:10:19;;;;;;;7.38;1.50;;;2.20;99.90;;;;;;5087201;28;20023;-46
2022/01/06 02:12:45;;;;;;;6.00;1.58;;;2.10;99.90;;;;;;5087626;28;20122;-46
2022/01/06 02:15:11;;;;;;;4.72;1.50;;;2.10;99.90;;;;;;5089017;28;20016;-47
2022/01/06 02:17:38;;;;;;;5.45;0.93;;;2.10;99.90;;;;;;5088420;28;20436;-47
2022/01/06 02:20:05;;;;;;;4.43;1.15;;;2.10;99.90;;;;;;5089055;28;20027;-46
2022/01/06 02:22:31;;;;;;;6.68;1.92;;;2.10;99.90;;;;;;5075251;28;20081;-46
2022/01/06 02:24:56;;;;;;;5.07;1.80;;;2.10;99.90;;;;;;5085560;28;20035;-45
2022/01/06 02:27:22;;;;;;;5.30;1.20;;;2.00;99.90;;;;;;5088180;28;20012;-49
2022/01/06 02:29:51;;;;;;;3.38;1.23;;;2.00;99.90;;;;;;5051499;28;20044;-49
2022/01/06 02:32:19;;;;;;;4.00;1.48;;;2.00;99.90;;;;;;5048853;28;20574;-44
2022/01/06 02:34:46;;;;;;;4.72;1.30;;;1.90;99.90;;;;;;5051403;28;20103;-46
2022/01/06 02:37:13;;;;;;;3.38;1.10;;;1.90;99.90;;;;;;5052907;28;20108;-45
2022/01/06 02:39:38;;;;;;;7.28;1.55;;;1.90;99.90;;;;;;5056269;28;20024;-44
2022/01/06 02:42:05;;;;;;;4.45;1.40;;;1.80;99.90;;;;;;5057804;28;20678;-43
2022/01/06 02:44:30;;;;;;;6.13;1.25;;;1.80;99.90;;;;;;5059013;28;20389;-44
2022/01/06 02:46:57;;;;;;;5.15;1.73;;;1.80;99.90;;;;;;5057102;28;20029;-43
2022/01/06 02:49:22;;;;;;;4.70;1.20;;;1.70;99.90;;;;;;5056074;28;20419;-45
2022/01/06 02:51:48;;;;;;;8.63;3.15;;;1.60;99.90;;;;;;5062520;28;20020;-44
2022/01/06 02:54:14;;;;;;;8.05;1.20;;;1.60;99.90;;;;;;5064412;28;20013;-43
2022/01/06 02:56:42;;;;;;;5.57;1.10;;;1.50;99.90;;;;;;5045831;28;20482;-44
2022/01/06 02:59:09;;;;;;;4.82;1.33;;;1.50;99.90;;;;;;5056380;28;20492;-44
2022/01/06 03:01:39;;;;;;;5.45;1.55;;;1.50;99.90;;;;;;5056815;28;20024;-44
2022/01/06 03:04:05;;;;;;;6.03;1.30;;;1.40;99.90;;;;;;5057463;28;20025;-47
2022/01/06 03:06:30;;;;;;;7.97;1.35;;;1.40;99.90;;;;;;5062061;28;20406;-44
2022/01/06 03:08:56;;;;;;;8.82;1.85;;;1.40;99.90;;;;;;5061447;28;20120;-44
2022/01/06 03:11:25;;;;;;;4.72;1.42;;;1.30;99.90;;;;;;5057836;28;20017;-46
2022/01/06 03:13:52;;;;;;;7.93;1.75;;;1.30;99.90;;;;;;5058579;28;20016;-44
2022/01/06 03:16:17;;;;;;;6.28;1.25;;;1.30;99.90;;;;;;5055609;28;20494;-43
2022/01/06 03:18:43;;;;;;;6.75;1.42;;;1.20;99.90;;;;;;5057940;28;20025;-44
2022/01/06 03:21:08;;;;;;;4.55;1.35;;;1.20;99.90;;;;;;5067666;28;20407;-44
2022/01/06 03:23:34;;;;;;;4.68;1.17;;;1.20;99.90;;;;;;5059365;28;20032;-44
2022/01/06 03:25:59;;;;;;;12.40;1.90;;;1.10;99.90;;;;;;5057230;28;20399;-44
2022/01/06 03:28:24;;;;;;;6.95;1.20;;;1.10;99.90;;;;;;5056693;28;20031;-44
2022/01/06 03:30:50;;;;;;;6.07;1.27;;;1.10;99.90;;;;;;5060928;28;20037;-43
2022/01/06 03:33:17;;;;;;;4.60;1.55;;;1.10;99.90;;;;;;5060491;28;20029;-44
2022/01/06 03:35:42;;;;;;;2.20;1.20;;;1.00;99.90;;;;;;5068866;28;20094;-46
2022/01/06 03:38:08;;;;;;;2.90;1.10;;;1.00;99.90;;;;;;5063486;28;20025;-45
2022/01/06 03:40:33;;;;;;;6.50;1.25;;;1.00;99.90;;;;;;5062227;28;20126;-43
2022/01/06 03:42:59;;;;;;;5.97;2.08;;;1.00;99.90;;;;;;5059506;28;20033;-43
2022/01/06 03:45:24;;;;;;;8.02;3.03;;;0.90;99.90;;;;;;5051694;28;20024;-43
2022/01/06 03:47:50;;;;;;;4.50;1.15;;;0.90;99.90;;;;;;5050772;28;20159;-44
2022/01/06 03:50:16;;;;;;;8.93;1.38;;;0.90;99.90;;;;;;5051478;28;20368;-43
2022/01/06 03:52:42;;;;;;;8.20;1.75;;;0.90;99.90;;;;;;5050940;28;20029;-43
2022/01/06 03:55:12;;;;;;;3.65;1.20;;;0.80;99.90;;;;;;5050166;28;20225;-44
2022/01/06 03:57:37;;;;;;;2.83;1.30;;;0.80;99.90;;;;;;5050659;28;20028;-46
2022/01/06 04:00:06;;;;;;;2.90;1.40;;;0.80;99.90;;;;;;5049794;28;20029;-44
2022/01/06 04:02:32;;;;;;;5.07;1.50;;;0.80;99.90;;;;;;5051158;28;20040;-43
2022/01/06 04:04:57;;;;;;;3.80;1.00;;;0.80;99.90;;;;;;5069994;28;20024;-46
2022/01/06 04:07:22;;;;;;;4.10;1.38;;;0.80;99.90;;;;;;5078001;28;20017;-44
2022/01/06 04:09:48;;;;;;;5.63;2.80;;;0.70;99.90;;;;;;5086727;28;20266;-44
2022/01/06 04:12:13;;;;;;;6.15;1.33;;;0.70;99.90;;;;;;5091477;28;20039;-45
2022/01/06 04:14:39;;;;;;;2.95;1.40;;;0.60;99.90;;;;;;5089896;28;20022;-44
2022/01/06 04:17:07;;;;;;;5.00;1.10;;;0.60;99.90;;;;;;5091352;28;20270;-45
2022/01/06 04:19:34;;;;;;;3.08;1.45;;;0.70;99.90;;;;;;5090631;28;20103;-44
2022/01/06 04:22:00;;;;;;;3.65;1.15;;;0.70;99.90;;;;;;5091411;28;20052;-45
2022/01/06 04:24:25;;;;;;;10.93;1.80;;;0.70;99.90;;;;;;5091130;28;20462;-44
2022/01/06 04:26:51;;;;;;;4.88;1.20;;;0.70;99.90;;;;;;5091068;28;20064;-44
2022/01/06 04:29:16;;;;;;;6.38;1.90;;;0.70;99.90;;;;;;5079431;28;20020;-45
2022/01/06 04:31:42;;;;;;;3.92;1.33;;;0.60;99.90;;;;;;5085816;28;20358;-44
2022/01/06 04:34:07;;;;;;;3.80;1.38;;;0.60;99.90;;;;;;5090764;28;20024;-43
2022/01/06 04:36:33;;;;;;;6.25;1.55;;;0.70;99.90;;;;;;5090480;28;20095;-44
2022/01/06 04:38:58;;;;;;;7.63;1.20;;;0.70;99.90;;;;;;5090214;28;20070;-44
2022/01/06 04:41:24;;;;;;;5.05;1.25;;;0.70;99.90;;;;;;5089713;28;20209;-44
2022/01/06 04:43:49;;;;;;;4.32;1.35;;;0.70;99.90;;;;;;5089221;28;20072;-44
2022/01/06 04:46:15;;;;;;;4.40;1.75;;;0.70;99.90;;;;;;5090711;28;20032;-45
2022/01/06 04:48:41;;;;;;;5.35;1.52;;;0.60;99.90;;;;;;5089674;28;20028;-44
2022/01/06 04:51:07;;;;;;;9.23;1.30;;;0.60;99.90;;;;;;5090303;28;20032;-44
2022/01/06 04:53:33;;;;;;;3.22;1.27;;;0.60;99.90;;;;;;5090376;28;20031;-44
2022/01/06 04:56:00;;;;;;;6.63;1.45;;;0.60;99.90;;;;;;5090663;28;20382;-44
2022/01/06 04:58:26;;;;;;;4.03;1.20;;;0.60;99.90;;;;;;5084476;28;20059;-46
2022/01/06 05:00:52;;;;;;;3.50;1.40;;;0.60;99.90;;;;;;5081785;28;20454;-44
2022/01/06 05:03:17;;;;;;;6.70;1.67;;;0.60;99.90;;;;;;5090294;28;20043;-45
2022/01/06 05:05:43;;;;;;;4.70;1.52;;;0.60;99.90;;;;;;5079703;28;20031;-44
2022/01/06 05:08:08;;;;;;;6.13;1.67;;;0.60;99.90;;;;;;5087532;28;20520;-46
2022/01/06 05:10:34;;;;;;;7.07;2.10;;;0.60;99.90;;;;;;5088936;28;20062;-44
2022/01/06 05:13:00;;;;;;;4.30;1.42;;;0.50;99.90;;;;;;5090280;28;20032;-44
2022/01/06 05:15:25;;;;;;;6.93;2.13;;;0.60;99.90;;;;;;5090154;28;20035;-44
2022/01/06 05:17:50;;;;;;;4.20;1.45;;;0.50;99.90;;;;;;5089314;28;20115;-44
2022/01/06 05:20:16;;;;;;;2.13;1.30;;;0.60;99.90;;;;;;5089998;28;20697;-44
2022/01/06 05:22:44;;;;;;;8.32;1.60;;;0.50;99.90;;;;;;5082766;28;20023;-46
2022/01/06 05:25:12;;;;;;;7.53;1.60;;;0.60;99.90;;;;;;5081213;28;20073;-46
2022/01/06 05:27:38;;;;;;;6.68;1.58;;;0.60;99.90;;;;;;5089034;28;20539;-44
2022/01/06 05:30:06;;;;;;;8.07;2.78;;;0.70;99.90;;;;;;5089882;28;20036;-44
2022/01/06 05:32:31;;;;;;;5.45;1.73;;;0.80;99.90;;;;;;5090146;28;20524;-44
2022/01/06 05:34:57;;;;;;;5.00;2.03;;;0.80;99.90;;;;;;5089731;28;20100;-44
2022/01/06 05:37:22;;;;;;;6.80;1.73;;;0.80;99.90;;;;;;5089307;28;20028;-45
2022/01/06 05:39:48;;;;;;;5.75;1.50;;;0.80;99.90;;;;;;5081191;28;20430;-44
2022/01/06 05:42:13;;;;;;;3.30;1.38;;;0.80;99.90;;;;;;5077479;28;20035;-44
2022/01/06 05:44:42;;;;;;;5.07;2.00;;;0.90;99.90;;;;;;5079746;28;20039;-46
2022/01/06 05:47:08;;;;;;;1.88;1.25;;;0.80;99.90;;;;;;5089131;28;20031;-43
2022/01/06 05:49:34;;;;;;;4.47;1.17;;;0.80;99.90;;;;;;5089067;28;20032;-44
2022/01/06 05:52:00;;;;;;;9.05;1.40;;;0.90;99.90;;;;;;5089374;28;20031;-44
2022/01/06 05:54:26;;;;;;;7.15;1.65;;;0.90;99.90;;;;;;5088474;28;20066;-44
2022/01/06 05:56:51;;;;;;;6.50;2.78;;;0.90;99.90;;;;;;5080905;28;20021;-44
2022/01/06 05:59:17;;;;;;;14.27;3.92;;;0.90;99.90;;;;;;5079413;28;20077;-44
2022/01/06 06:01:43;;;;;;;6.43;1.63;;;0.90;99.90;;;;;;5089285;28;20489;-46
2022/01/06 06:04:09;;;;;;;6.88;1.77;;;0.90;99.90;;;;;;5089339;28;20492;-44
2022/01/06 06:06:34;;;;;;;5.65;2.50;;;0.90;99.90;;;;;;5081343;28;20060;-46
2022/01/06 06:09:00;;;;;;;7.45;1.30;;;1.00;99.90;;;;;;5072714;28;20058;-48
2022/01/06 06:11:25;;;;;;;8.50;2.60;;;1.00;99.90;;;;;;5089312;28;20024;-44
2022/01/06 06:13:51;;;;;;;5.43;1.95;;;1.00;99.90;;;;;;5088157;28;20496;-44
2022/01/06 06:16:16;;;;;;;7.25;2.03;;;1.00;99.90;;;;;;5075492;28;20497;-44
2022/01/06 06:18:42;;;;;;;9.38;1.50;;;1.00;99.90;;;;;;5068065;28;20832;-43
2022/01/06 06:21:08;;;;;;;3.95;1.50;;;1.00;99.90;;;;;;5077340;28;20115;-44
2022/01/06 06:23:33;;;;;;;10.43;1.73;;;1.00;99.90;;;;;;5080831;28;20324;-43
2022/01/06 06:25:59;;;;;;;9.35;1.95;;;1.00;99.90;;;;;;5088081;28;20118;-44
2022/01/06 06:28:25;;;;;;;5.53;1.40;;;1.00;99.90;;;;;;5074961;28;20385;-44
2022/01/06 06:30:50;;;;;;;8.00;2.00;;;1.10;99.90;;;;;;5083136;28;20032;-44
2022/01/06 06:33:15;;;;;;;11.48;2.70;;;1.00;99.90;;;;;;5088973;28;20517;-45
2022/01/06 06:35:41;;;;;;;6.40;1.70;;;1.10;99.90;;;;;;5088991;28;20020;-46
2022/01/06 06:38:07;;;;;;;4.63;1.75;;;1.10;99.90;;;;;;5087624;28;20020;-44
2022/01/06 06:40:32;;;;;;;8.15;1.98;;;1.10;99.90;;;;;;5080471;28;20044;-43
2022/01/06 06:42:58;;;;;;;3.88;1.83;;;1.10;99.90;;;;;;5080262;28;20055;-44
2022/01/06 06:45:23;;;;;;;6.55;1.50;;;1.10;99.90;;;;;;5088612;28;20077;-44
2022/01/06 06:47:50;;;;;;;9.25;2.40;;;1.10;99.90;;;;;;5087813;28;20020;-45
2022/01/06 06:50:17;;;;;;;6.95;1.50;;;1.10;99.90;;;;;;5084215;28;20747;-43
2022/01/06 06:52:43;;;;;;;8.25;2.10;;;1.10;99.90;;;;;;5066525;28;20031;-51
2022/01/06 06:55:09;;;;;;;7.75;2.15;;;1.10;99.90;;;;;;5058481;28;20091;-44
2022/01/06 06:57:35;;;;;;;6.15;1.60;;;1.10;99.90;;;;;;5057840;28;20029;-45
2022/01/06 07:00:04;;;;;;;4.72;1.50;;;1.10;99.90;;;;;;5057668;28;20028;-44
2022/01/06 07:02:32;;;;;;;6.22;1.50;;;1.10;99.90;;;;;;5058914;28;20025;-47
2022/01/06 07:04:59;;;;;;;3.72;1.25;;;1.10;99.90;;;;;;5058476;28;20457;-47
2022/01/06 07:07:25;;;;;;;4.13;1.92;;;1.10;99.90;;;;;;5063203;28;20281;-45
2022/01/06 07:09:50;;;;;;;10.93;3.38;;;1.10;99.90;;;;;;5064852;28;20414;-44
2022/01/06 07:12:16;;;;;;;6.45;2.20;;;1.10;99.90;;;;;;5062744;28;20028;-44
2022/01/06 07:14:42;;;;;;;4.32;1.58;;;1.00;99.90;;;;;;5068443;28;20054;-45
2022/01/06 07:17:08;;;;;;;12.25;2.88;;;1.10;99.90;;;;;;5064493;28;20814;-44
2022/01/06 07:19:33;;;;;;;4.57;2.20;;;1.10;99.90;;;;;;5060875;28;20291;-44
2022/01/06 07:22:00;;;;;;;5.30;1.90;;;1.10;99.90;;;;;;5068333;28;20028;-44
2022/01/06 07:24:25;;;;;;;4.78;1.98;;;1.00;99.90;;;;;;5059000;28;20033;-47
2022/01/06 07:26:51;;;;;;;4.47;1.67;;;1.10;99.90;;;;;;5058587;28;20029;-44
2022/01/06 07:29:16;;;;;;;17.17;2.92;;;1.00;99.90;;;;;;5051658;28;20029;-44
2022/01/06 07:31:42;;;;;;;3.40;1.95;;;1.10;99.90;;;;;;5051716;28;20410;-45
2022/01/06 07:34:08;;;;;;;16.75;2.95;;;1.10;99.90;;;;;;5051780;28;20264;-44
2022/01/06 07:36:33;;;;;;;8.32;2.00;;;1.10;99.90;;;;;;5079612;28;20042;-43
2022/01/06 07:38:59;;;;;;;6.05;2.60;;;1.10;99.90;;;;;;5088033;28;20026;-44
2022/01/06 07:41:25;;;;;;;8.63;2.15;;;1.10;99.90;;;;;;5091592;28;20035;-44
2022/01/06 07:43:50;;;;;;;4.97;1.80;;;1.10;99.90;;;;;;5091439;28;20410;-44
2022/01/06 07:46:16;;;;;;;6.25;1.73;;;1.20;99.90;;;;;;5089233;28;20031;-43
2022/01/06 07:48:54;;;;;;;8.57;2.28;;;1.20;99.90;;;;;;5077501;28;20111;-45
2022/01/06 07:51:20;;;;;;;4.53;1.90;;;1.20;99.90;;;;;;5090758;28;20485;-44
2022/01/06 07:53:45;;;;;;;8.50;2.25;;;1.20;99.90;;;;;;5090280;28;20024;-47
2022/01/06 07:56:11;;;;;;;6.03;1.77;;;1.20;99.90;;;;;;5089521;28;20112;-45
2022/01/06 07:58:36;;;;;;;8.88;2.78;;;1.30;99.90;;;;;;5079018;28;20016;-44
2022/01/06 08:01:02;;;;;;;7.30;2.05;;;1.30;99.90;;;;;;5088526;28;20028;-43
2022/01/06 08:03:28;;;;;;;5.43;2.22;;;1.30;99.90;;;;;;5064660;28;20418;-44
2022/01/06 08:05:53;;;;;;;9.20;2.10;;;1.30;99.90;;;;;;5051190;28;20100;-45
2022/01/06 08:08:19;;;;;;;11.15;2.35;;;1.40;99.90;;;;;;5062538;28;20460;-45
2022/01/06 08:10:44;;;;;;;17.70;3.00;;;1.40;99.90;;;;;;5076061;28;20502;-44
2022/01/06 08:13:10;;;;;;;5.72;2.05;;;1.50;99.90;;;;;;5071090;28;20048;-44
2022/01/06 08:15:36;;;;;;;7.20;2.50;;;1.50;99.90;;;;;;5070555;28;20047;-45
2022/01/06 08:18:01;;;;;;;7.50;2.33;;;1.60;99.90;;;;;;5070325;28;20074;-47
2022/01/06 08:20:27;;;;;;;10.93;3.83;;;1.60;99.90;;;;;;5074418;28;20239;-46
2022/01/06 08:22:52;;;;;;;6.72;2.25;;;1.60;99.90;;;;;;5082155;28;20050;-45
2022/01/06 08:25:18;;;;;;;6.03;2.63;;;1.60;99.90;;;;;;5089798;28;20393;-45
2022/01/06 08:27:43;;;;;;;12.43;3.05;;;1.70;99.90;;;;;;5090724;28;20035;-45
2022/01/06 08:30:09;;;;;;;8.10;3.08;;;1.60;99.90;;;;;;5091262;28;20358;-44
2022/01/06 08:32:35;;;;;;;9.93;2.65;;;1.60;99.90;;;;;;5090950;28;20020;-45
2022/01/06 08:35:01;;;;;;;8.30;2.40;;;1.70;99.90;;;;;;5090890;28;20031;-44
2022/01/06 08:37:26;;;;;;;6.55;2.67;;;1.70;99.90;;;;;;5089991;28;20095;-44
2022/01/06 08:39:52;;;;;;;5.35;2.70;;;1.80;99.90;;;;;;5090848;28;20024;-45
2022/01/06 08:42:17;;;;;;;9.40;2.45;;;1.80;99.90;;;;;;5090662;28;20032;-47
2022/01/06 08:44:43;;;;;;;9.25;3.17;;;1.90;99.90;;;;;;5090928;28;20037;-44
2022/01/06 08:47:09;;;;;;;9.65;3.03;;;1.90;99.90;;;;;;5090573;28;20661;-44
2022/01/06 08:49:37;;;;;;;9.45;2.78;;;1.90;99.90;;;;;;5090205;28;20058;-47
2022/01/06 08:52:03;;;;;;;13.52;3.42;;;2.00;99.90;;;;;;5076865;28;20039;-46
2022/01/06 08:54:28;;;;;;;6.32;2.83;;;2.10;99.90;;;;;;5090297;28;20063;-45
2022/01/06 08:56:54;;;;;;;12.30;3.35;;;2.10;99.90;;;;;;5090630;28;20064;-44
2022/01/06 08:59:19;;;;;;;8.48;2.75;;;2.20;99.90;;;;;;5089430;28;20394;-44
2022/01/06 09:01:45;;;;;;;5.32;2.90;;;2.30;99.90;;;;;;5090460;28;20027;-44
2022/01/06 09:04:11;;;;;;;8.93;3.05;;;2.40;99.90;;;;;;5089041;28;20270;-44
2022/01/06 09:06:36;;;;;;;10.32;3.17;;;2.40;99.90;;;;;;5085421;28;20053;-45
2022/01/06 09:09:03;;;;;;;12.55;3.08;;;2.50;99.90;;;;;;5077047;28;20028;-46
2022/01/06 09:11:28;;;;;;;11.30;3.35;;;2.60;99.90;;;;;;5090285;28;20032;-45
2022/01/06 09:13:54;;;;;;;8.52;3.30;;;2.60;99.90;;;;;;5090172;28;20220;-44
2022/01/06 09:16:19;;;;;;;10.48;3.60;;;2.70;99.90;;;;;;5090059;28;20489;-46
2022/01/06 09:18:45;;;;;;;10.45;3.50;;;2.70;99.90;;;;;;5088133;28;20158;-45
2022/01/06 09:21:10;;;;;;;11.85;4.28;;;2.80;99.90;;;;;;5080501;28;20248;-45
2022/01/06 09:23:36;;;;;;;8.10;3.50;;;3.00;99.90;;;;;;5066018;28;20036;-48
2022/01/06 09:26:03;;;;;;;13.82;4.22;;;3.10;99.90;;;;;;5056136;28;20032;-46
2022/01/06 09:28:28;;;;;;;15.10;4.47;;;3.00;99.90;;;;;;5064071;28;20043;-45
2022/01/06 09:30:55;;;;;;;10.48;4.15;;;3.00;99.90;;;;;;5061481;28;20111;-45
2022/01/06 09:33:22;;;;;;;12.48;3.83;;;3.00;99.90;;;;;;5063620;28;20496;-45
2022/01/06 09:36:07;;;;;;;12.00;3.80;;;2.90;99.90;;;;;;5065454;28;20082;-45
2022/01/06 09:38:33;;;;;;;10.85;3.38;;;3.00;99.90;;;;;;5069706;28;20593;-45
2022/01/06 09:41:03;;;;;;;11.85;3.85;;;3.10;99.90;;;;;;5064100;28;20060;-46
2022/01/06 09:43:30;;;;;;;9.88;4.07;;;3.20;99.90;;;;;;5059990;28;20025;-46
2022/01/06 09:46:02;;;;;;;10.52;3.65;;;3.30;99.90;;;;;;5051472;28;20082;-46
2022/01/06 09:48:29;;;;;;;9.10;3.60;;;3.40;99.90;;;;;;5048572;28;20425;-45
2022/01/06 09:50:56;;;;;;;17.15;4.03;;;3.50;99.90;;;;;;5056930;28;20056;-45
2022/01/06 09:53:21;;;;;;;11.73;4.07;;;3.60;99.90;;;;;;5062076;28;20120;-46
2022/01/06 09:55:47;;;;;;;13.93;3.65;;;3.60;99.90;;;;;;5053666;28;20099;-45
2022/01/06 09:58:20;;;;;;;8.70;3.30;;;3.50;99.90;;;;;;5076030;28;20028;-45
2022/01/06 10:00:46;;;;;;;15.93;4.00;;;3.50;99.90;;;;;;5083596;28;20020;-46
2022/01/06 10:03:11;;;;;;;13.57;3.95;;;3.60;99.90;;;;;;5088281;28;20218;-45
2022/01/06 10:05:45;;;;;;;10.38;3.38;;;3.60;99.90;;;;;;5087911;28;20027;-46
2022/01/06 10:08:13;;;;;;;8.60;3.10;;;3.60;99.90;;;;;;5078054;28;20020;-45
2022/01/06 10:10:40;;;;;;;8.88;3.85;;;3.70;99.90;;;;;;5082222;28;20032;-46
2022/01/06 10:13:07;;;;;;;11.07;4.15;;;3.80;99.90;;;;;;5083269;28;20027;-46
2022/01/06 10:15:34;;;;;;;8.70;3.05;;;3.80;99.90;;;;;;5062839;28;20032;-46
2022/01/06 10:18:14;;;;;;;15.38;2.97;;;3.80;99.90;;;;;;5068468;28;20044;-45
2022/01/06 10:20:40;;;;;;;9.02;3.33;;;3.80;99.90;;;;;;5054621;28;20036;-48
2022/01/06 10:23:14;;;;;;;8.95;2.53;;;3.90;99.90;;;;;;5059436;28;20038;-45
2022/01/06 10:25:49;;;;;;;7.22;3.90;;;3.90;99.90;;;;;;5066491;28;20027;-45
2022/01/06 10:28:20;;;;;;;13.45;3.55;;;3.90;99.90;;;;;;5065293;28;20047;-45
2022/01/06 10:30:48;;;;;;;9.88;2.65;;;4.00;99.90;;;;;;5064810;28;20051;-45
2022/01/06 10:33:18;;;;;;;9.18;2.83;;;4.10;99.90;;;;;;5064264;28;20048;-46
2022/01/06 10:35:44;;;;;;;11.70;3.13;;;4.20;99.90;;;;;;5072291;28;20055;-45
2022/01/06 10:38:09;;;;;;;10.38;3.63;;;4.30;99.90;;;;;;5076946;28;20024;-47
2022/01/06 10:40:35;;;;;;;8.57;3.22;;;4.40;99.90;;;;;;5077837;28;20405;-46
2022/01/06 10:43:06;;;;;;;7.97;2.60;;;4.40;99.90;;;;;;5065661;28;20101;-47
2022/01/06 10:45:34;;;;;;;8.68;3.10;;;4.60;99.90;;;;;;5066474;28;20025;-46
2022/01/06 10:48:03;;;;;;;8.48;2.47;;;5.40;99.90;;;;;;5061576;28;20032;-45
2022/01/06 10:50:31;;;;;;;4.90;2.50;;;6.80;99.90;;;;;;5066623;28;20021;-47
2022/01/06 10:52:58;;;;;;;9.10;2.72;;;8.30;99.90;;;;;;5055169;28;20032;-46
2022/01/06 10:55:31;;;;;;;8.55;2.55;;;9.60;99.90;;;;;;5046109;28;20035;-47
2022/01/06 10:57:56;;;;;;;5.80;2.63;;;10.70;98.20;;;;;;5044923;28;20021;-46
2022/01/06 11:00:25;;;;;;;5.40;2.50;;;11.00;96.90;;;;;;5046442;28;20032;-47
2022/01/06 11:02:51;;;;;;;5.30;2.75;;;11.40;96.50;;;;;;5068294;28;20012;-46
2022/01/06 11:05:17;;;;;;;7.50;2.97;;;11.70;93.90;;;;;;5077375;28;20490;-47
2022/01/06 11:07:43;;;;;;;9.00;3.30;;;12.00;92.40;;;;;;5081872;28;20023;-46
2022/01/06 11:10:16;;;;;;;9.60;2.60;;;11.30;91.80;;;;;;5078305;28;20024;-46
2022/01/06 11:12:42;;;;;;;9.32;3.28;;;11.50;94.00;;;;;;5087182;28;20231;-46
2022/01/06 11:15:09;;;;;;;8.20;3.03;;;12.20;91.90;;;;;;5084869;28;20032;-47
2022/01/06 11:17:35;;;;;;;9.07;3.25;;;12.60;90.90;;;;;;5072972;28;20013;-47
2022/01/06 11:20:01;;;;;;;8.82;3.22;;;12.70;90.00;;;;;;5084002;28;20028;-45
2022/01/06 11:22:27;;;;;;;7.13;3.13;;;13.10;87.40;;;;;;5075747;28;20024;-47
2022/01/06 11:24:57;;;;;;;6.03;3.08;;;13.00;87.80;;;;;;5066459;28;20154;-47
2022/01/06 11:27:31;;;;;;;8.23;3.22;;;12.50;87.40;;;;;;5068085;28;20582;-47
2022/01/06 11:30:13;;;;;;;7.25;3.25;;;11.50;89.60;;;;;;5077804;28;20040;-46
2022/01/06 11:32:39;;;;;;;7.63;2.97;;;10.70;91.60;;;;;;5055013;28;20557;-45
2022/01/06 11:35:15;;;;;;;12.85;3.75;;;9.90;94.20;;;;;;5061034;28;20302;-45
2022/01/06 11:37:47;;;;;;;8.07;3.33;;;9.30;95.40;;;;;;5057401;28;20064;-46
2022/01/06 11:40:15;;;;;;;8.50;3.85;;;8.50;97.40;;;;;;5053758;28;20078;-46
2022/01/06 11:42:52;;;;;;;12.02;3.50;;;8.10;99.90;;;;;;5054481;28;20023;-46
2022/01/06 11:45:18;;;;;;;12.43;3.67;;;7.90;99.90;;;;;;5046512;28;20021;-45
2022/01/06 11:47:44;;;;;;;9.63;3.70;;;7.70;99.90;;;;;;5045729;28;20033;-43
2022/01/06 11:50:24;;;;;;;6.72;3.13;;;7.40;99.90;;;;;;5059415;28;20179;-46
2022/01/06 11:52:51;;;;;;;8.95;3.83;;;7.00;99.90;;;;;;5064158;28;20021;-45
2022/01/06 11:55:17;;;;;;;11.93;3.85;;;6.80;99.90;;;;;;5049628;28;20025;-45
2022/01/06 11:57:43;;;;;;;11.30;4.07;;;6.50;99.90;;;;;;5065849;28;20474;-45
2022/01/06 12:00:26;;;;;;;13.52;4.15;;;6.40;99.90;;;;;;5081297;28;20028;-44
2022/01/06 12:03:12;;;;;;;12.57;5.32;;;6.30;99.90;;;;;;5089640;28;20490;-47
2022/01/06 12:05:49;;;;;;;14.10;4.43;;;5.90;99.90;;;;;;5089875;28;20016;-45
2022/01/06 12:08:21;;;;;;;10.07;4.25;;;5.80;99.90;;;;;;5081410;28;20342;-47
2022/01/06 12:10:51;;;;;;;18.65;4.32;;;5.80;99.90;;;;;;5057640;28;20394;-48
2022/01/06 12:13:18;;;;;;;13.00;4.70;;;5.80;99.90;;;;;;5048931;28;20470;-46
2022/01/06 12:15:55;;;;;;;10.73;4.03;;;5.60;99.90;;;;;;5052377;28;20067;-47
2022/01/06 12:18:24;;;;;;;10.93;4.50;;;5.50;99.90;;;;;;5068820;28;20025;-46
2022/01/06 12:20:52;;;;;;;14.07;4.45;;;5.40;99.90;;;;;;5069346;28;20027;-46
2022/01/06 12:23:18;;;;;;;9.88;4.25;;;5.30;99.90;;;;;;5069181;28;20505;-45
2022/01/06 12:26:00;;;;;;;10.90;4.38;;;5.30;99.90;;;;;;5068180;28;20025;-46
2022/01/06 12:28:28;;;;;;;15.32;5.47;;;5.30;99.90;;;;;;5067004;28;20217;-45
2022/01/06 12:31:05;;;;;;;10.20;4.05;;;5.30;99.90;;;;;;5051013;28;20154;-45
2022/01/06 12:33:41;;;;;;;13.52;4.60;;;5.20;99.90;;;;;;5070609;28;20029;-46
2022/01/06 12:36:06;;;;;;;11.90;4.10;;;5.20;99.90;;;;;;5067416;28;20024;-47
2022/01/06 12:38:34;;;;;;;7.45;4.32;;;5.10;99.90;;;;;;5065088;28;20046;-47
2022/01/06 12:41:00;;;;;;;13.18;4.60;;;4.90;99.90;;;;;;5070895;28;20017;-47
2022/01/06 12:43:28;;;;;;;12.77;4.70;;;4.80;99.90;;;;;;5068142;28;20059;-46
2022/01/06 12:46:15;;;;;;;14.43;4.10;;;4.90;99.90;;;;;;5061083;28;20025;-45
2022/01/06 12:48:43;;;;;;;10.07;5.43;;;4.80;99.90;;;;;;5067011;28;20032;-46
2022/01/06 12:51:12;;;;;;;13.60;4.72;;;4.80;99.90;;;;;;5069011;28;20111;-45
2022/01/06 12:53:43;;;;;;;13.07;5.45;;;4.80;99.90;;;;;;5079682;28;20067;-44
2022/01/06 12:56:27;;;;;;;16.90;4.90;;;4.70;99.90;;;;;;5062985;28;20025;-44
2022/01/06 12:58:55;;;;;;;27.10;5.50;;;4.70;99.90;;;;;;5056726;28;20025;-47
2022/01/06 13:01:21;;;;;;;12.68;5.10;;;4.80;99.90;;;;;;5058968;28;20074;-46
2022/01/06 13:03:51;;;;;;;16.38;4.80;;;4.80;99.90;;;;;;5066903;28;20025;-44